Página principal
METAR-TAF:

METAR-TAF

Aeroportos :

Aeroporto Internacional de Fuaʻamotu

Tongatapu, Tonga

latitude: 21-14S, longitude: 175-09W, altura: 38 m

Observação actual do tempo

O boletim foi feito há 33 minutos, às 16:00 UTC
Vento 10 kt de sul
Temperatura 22°C
Humidade 83%
Pressão 1013 hPa
Visibilidade 10 km ou mais
Nuvens dispersasa uma altura de 1800 ft
Nuvens fragmentadasa uma altura de 4000 ft

METAR: NFTF 231600Z 17010KT 9999 SCT018 BKN040 22/19 Q1013

Hora: 05:33 (16:33 UTC)

Previsão

O boletim foi feito há 5 horas e 22 minutos, às 11:11 UTC
Previsão válida de 23 às 12 UTC a 24 às 12 UTC
Vento 8 kt de sul
Visibilidade 10 km ou mais
Poucas nuvensa uma altura de 1700 ft
Nuvens dispersasa uma altura de 4000 ft

TAF: NFTF 231111Z 2312/2412 19008KT 9999 FEW017 SCT040

Observações e previsões do tempo de mais de 4000 aeroportos (mensagens METAR e TAF).

As estações disponíveis são os pontos amarelos e vermelhos sobre o mapa.

Mova o rato sobre o mapa para ver o nome da estação.

Depois clique no ponto para visualizar as observações e previsões meteorológicas.

Para alterar o mapa : clique nos botões verdes com uma cruz preta para aumentar o zoom; no botão verde com uma pitada de zoom; ou nas setas verdes para mapas adjacentes.


METAR-TAF: